Terminal Aerodrome Forecast
Issued by NWS

Home | Current Version | Previous Version | Text Only | Print | Product List | Glossary On
Versions: 1 2 3 4 5 6 7 8 9 10 11 12 13 14 15 16 17
621
FTUS41 KGYX 080524
TAFLEB
TAF
KLEB 080524Z 0806/0906 00000KT P6SM SCT035
     FM081600 01007KT P6SM OVC035
      TEMPO 0820/0822 6SM -SN OVC025
     FM082200 02012KT 2SM -SN BR OVC015=

USA.gov is the U.S. government's official web portal to all federal, state and local government web resources and services.